Time;durP1;ratioP1;P1;durP2;ratioP2;P2;SDS_P1;SDS_P2;PMS_P1;PMS_P2;Temp;Humidity;BMP_temperature;BMP_pressure;BME280_temperature;BME280_humidity;BME280_pressure;Samples;Min_cycle;Max_cycle;Signal;HPM_P1;HPM_P2
2022/06/28 00:01:10;;;;;;;19.05;17.55;;;;;;;22.20;71.42;100674.53;1652180;85;21115;-73
2022/06/28 00:03:36;;;;;;;19.75;17.90;;;;;;;22.15;72.25;100676.64;1645910;85;20988;-74
2022/06/28 00:06:02;;;;;;;19.15;17.55;;;;;;;22.21;72.40;100677.00;1651319;85;21563;-74
2022/06/28 00:08:32;;;;;;;18.10;15.83;;;;;;;22.31;71.96;100675.75;1642048;85;21654;-74
2022/06/28 00:10:58;;;;;;;17.65;16.15;;;;;;;22.46;71.48;100681.85;1644599;85;21136;-75
2022/06/28 00:13:25;;;;;;;11.80;11.00;;;;;;;22.57;70.95;100689.55;1645052;83;21190;-75
2022/06/28 00:16:07;;;;;;;10.05;9.35;;;;;;;22.56;70.95;100681.11;1650844;85;21115;-74
2022/06/28 00:18:39;;;;;;;10.43;9.45;;;;;;;22.40;71.44;100685.61;1638469;85;21105;-74
2022/06/28 00:21:07;;;;;;;12.13;11.12;;;;;;;22.16;72.52;100678.30;1650253;85;21127;-74
2022/06/28 00:23:39;;;;;;;11.33;10.28;;;;;;;21.96;73.43;100673.48;1639005;81;21134;-74
2022/06/28 00:26:06;;;;;;;13.15;12.15;;;;;;;21.90;74.13;100677.22;1614249;87;21038;-73
2022/06/28 00:28:33;;;;;;;11.70;10.88;;;;;;;21.85;74.77;100673.94;1647804;85;21075;-74
2022/06/28 00:31:01;;;;;;;13.00;11.97;;;;;;;21.89;74.71;100670.17;1645121;85;21112;-75
2022/06/28 00:33:28;;;;;;;11.48;10.58;;;;;;;21.93;74.53;100669.39;1651031;83;21486;-75
2022/06/28 00:35:54;;;;;;;12.28;11.38;;;;;;;21.94;74.59;100667.48;1667707;84;21042;-76
2022/06/28 00:38:20;;;;;;;13.35;12.28;;;;;;;21.97;74.56;100669.70;1660678;84;21045;-76
2022/06/28 00:40:50;;;;;;;12.90;11.97;;;;;;;22.07;74.24;100670.34;1679680;84;21109;-74
2022/06/28 00:43:19;;;;;;;15.15;13.85;;;;;;;22.10;73.88;100670.64;1674481;84;21022;-76
2022/06/28 00:45:48;;;;;;;12.80;11.65;;;;;;;22.14;73.16;100666.33;1667253;84;21035;-76
2022/06/28 00:48:17;;;;;;;13.05;12.05;;;;;;;22.27;72.85;100665.13;1653071;85;21038;-75
2022/06/28 00:50:44;;;;;;;14.58;13.48;;;;;;;22.38;72.26;100670.11;1652180;85;21073;-75
2022/06/28 00:53:15;;;;;;;12.75;11.65;;;;;;;22.44;71.83;100665.55;1655905;85;21142;-76
2022/06/28 00:55:43;;;;;;;14.43;13.32;;;;;;;22.46;71.70;100668.81;1615013;85;21493;-76
2022/06/28 00:58:14;;;;;;;14.28;12.85;;;;;;;22.37;71.65;100668.46;1647505;85;21133;-75
2022/06/28 01:00:44;;;;;;;11.53;10.53;;;;;;;22.31;72.18;100668.95;1645148;84;21074;-77
2022/06/28 01:03:18;;;;;;;12.90;11.90;;;;;;;22.31;72.73;100668.15;1656918;85;21114;-74
2022/06/28 01:05:46;;;;;;;11.68;10.72;;;;;;;22.24;72.81;100672.94;1651696;85;21513;-75
2022/06/28 01:08:14;;;;;;;12.05;11.15;;;;;;;22.23;73.17;100669.41;1653285;85;21060;-75
2022/06/28 01:10:42;;;;;;;11.97;11.10;;;;;;;22.30;72.88;100667.85;1652138;85;21072;-74
2022/06/28 01:13:09;;;;;;;12.35;11.28;;;;;;;22.38;72.73;100668.75;1658866;84;21085;-75
2022/06/28 01:15:39;;;;;;;12.47;11.57;;;;;;;22.44;72.73;100668.26;1657382;85;21521;-75
2022/06/28 01:18:09;;;;;;;11.30;10.50;;;;;;;22.47;72.57;100666.36;1658669;85;20994;-76
2022/06/28 01:20:41;;;;;;;11.43;10.53;;;;;;;22.45;72.53;100665.29;1657128;85;20983;-76
2022/06/28 01:23:09;;;;;;;11.03;10.03;;;;;;;22.46;72.68;100664.74;1654811;85;21529;-75
2022/06/28 01:25:36;;;;;;;11.03;10.23;;;;;;;22.49;72.96;100661.48;1643371;86;21059;-75
2022/06/28 01:28:05;;;;;;;9.73;9.13;;;;;;;22.48;72.99;100662.03;1654252;85;21070;-76
2022/06/28 01:30:32;;;;;;;9.33;8.63;;;;;;;22.44;73.31;100660.11;1644688;85;21106;-74
2022/06/28 01:33:03;;;;;;;10.10;9.28;;;;;;;22.40;73.57;100663.88;1642181;85;21502;-74
2022/06/28 01:35:29;;;;;;;9.35;8.75;;;;;;;22.37;73.61;100657.60;1651715;85;21018;-75
2022/06/28 01:37:57;;;;;;;10.15;9.35;;;;;;;22.43;73.53;100659.27;1652397;85;22194;-73
2022/06/28 01:40:24;;;;;;;8.53;7.78;;;;;;;22.47;73.23;100659.57;1645435;85;21149;-73
2022/06/28 01:42:51;;;;;;;10.68;9.88;;;;;;;22.41;73.43;100663.34;1654178;85;21125;-73
2022/06/28 01:45:18;;;;;;;10.20;9.30;;;;;;;22.19;74.41;100659.30;1654487;83;21046;-73
2022/06/28 01:47:47;;;;;;;8.88;8.28;;;;;;;21.97;75.27;100658.84;1643468;85;21113;-75
2022/06/28 01:50:35;;;;;;;9.98;9.08;;;;;;;21.77;76.42;100656.73;1656144;85;21043;-75
2022/06/28 01:53:01;;;;;;;11.38;9.68;;;;;;;21.61;77.54;100656.30;1655398;85;21148;-75
2022/06/28 01:55:46;;;;;;;9.00;8.50;;;;;;;21.49;78.52;100655.06;1643144;85;21152;-80
2022/06/28 01:58:17;;;;;;;10.18;9.25;;;;;;;21.45;79.11;100661.52;1653859;85;21118;-74
2022/06/28 02:00:43;;;;;;;10.08;9.48;;;;;;;21.55;79.00;100655.42;1637216;86;21077;-74
2022/06/28 02:03:11;;;;;;;9.80;9.20;;;;;;;21.71;78.30;100663.19;1655784;85;21105;-73
2022/06/28 02:05:55;;;;;;;10.88;10.08;;;;;;;21.82;77.53;100662.22;1638642;85;21101;-73
2022/06/28 02:08:21;;;;;;;12.23;9.95;;;;;;;21.95;76.91;100657.74;1644531;85;21071;-73
2022/06/28 02:11:00;;;;;;;9.65;9.05;;;;;;;21.94;76.76;100662.06;1651548;85;21046;-74
2022/06/28 02:13:32;;;;;;;10.23;9.58;;;;;;;21.78;76.90;100657.03;1639231;85;21589;-74
2022/06/28 02:15:59;;;;;;;11.60;9.48;;;;;;;21.65;78.00;100656.07;1654739;85;21062;-74
2022/06/28 02:18:26;;;;;;;9.70;8.83;;;;;;;21.56;78.16;100657.05;1650189;85;21097;-74
2022/06/28 02:20:54;;;;;;;9.63;9.03;;;;;;;21.53;78.83;100658.90;1656905;85;20991;-75
2022/06/28 02:23:20;;;;;;;10.28;9.48;;;;;;;21.71;78.51;100655.86;1656470;83;21059;-74
2022/06/28 02:25:47;;;;;;;9.05;8.35;;;;;;;22.06;77.06;100654.59;1637126;85;21056;-74
2022/06/28 02:28:13;;;;;;;10.03;9.23;;;;;;;22.46;75.39;100652.52;1661649;85;21061;-74
2022/06/28 02:30:40;;;;;;;8.55;7.95;;;;;;;22.82;73.69;100647.33;1642120;85;21010;-74
2022/06/28 02:33:06;;;;;;;8.80;8.00;;;;;;;23.15;71.96;100650.79;1653866;85;21328;-74
2022/06/28 02:41:01;;;;;;;9.73;8.73;;;;;;;23.97;68.47;100655.17;1648494;85;21118;-74
2022/06/28 02:43:28;;;;;;;7.50;7.05;;;;;;;24.14;67.76;100652.20;1649568;85;21034;-74
2022/06/28 02:45:54;;;;;;;8.15;7.47;;;;;;;24.33;67.17;100651.11;1668131;84;21109;-76
2022/06/28 02:48:21;;;;;;;8.15;7.30;;;;;;;24.60;66.19;100653.03;1679286;84;21692;-75
2022/06/28 02:50:47;;;;;;;7.35;6.85;;;;;;;24.92;65.46;100651.89;1667678;84;21065;-76
2022/06/28 02:53:13;;;;;;;8.75;8.15;;;;;;;25.22;64.08;100648.77;1637559;86;21107;-76
2022/06/28 02:55:39;;;;;;;8.78;7.65;;;;;;;25.53;62.73;100650.86;1678794;84;21007;-76
2022/06/28 02:58:06;;;;;;;7.85;7.30;;;;;;;25.84;61.35;100647.41;1682426;84;21105;-75
2022/06/28 03:00:32;;;;;;;7.62;7.08;;;;;;;26.08;60.84;100652.17;1669297;84;21021;-78
2022/06/28 03:02:58;;;;;;;7.65;7.25;;;;;;;26.22;60.27;100651.00;1641310;86;21026;-76
2022/06/28 03:05:24;;;;;;;6.92;6.53;;;;;;;26.35;59.73;100647.60;1644975;86;21041;-77
2022/06/28 03:07:51;;;;;;;7.10;6.70;;;;;;;26.48;59.51;100648.83;1640097;86;21009;-78
2022/06/28 03:10:19;;;;;;;9.05;8.35;;;;;;;26.75;58.67;100647.53;1639031;86;21052;-78
2022/06/28 03:12:47;;;;;;;15.95;14.55;;;;;;;27.11;57.69;100648.50;1648824;84;21550;-78
2022/06/28 03:15:16;;;;;;;9.08;8.48;;;;;;;27.32;56.74;100646.36;1648725;85;20998;-75
2022/06/28 03:17:42;;;;;;;11.40;10.48;;;;;;;27.28;57.75;100641.22;1654764;85;21081;-77
2022/06/28 03:20:10;;;;;;;11.80;10.88;;;;;;;27.21;58.14;100633.31;1655409;85;21004;-75
2022/06/28 03:22:37;;;;;;;12.35;9.88;;;;;;;27.17;58.39;100637.19;1649227;84;21097;-75
2022/06/28 03:25:05;;;;;;;13.85;12.85;;;;;;;27.17;58.62;100641.30;1639962;85;21529;-76
2022/06/28 03:27:32;;;;;;;17.80;16.00;;;;;;;27.17;58.71;100641.30;1591377;88;21615;-75
2022/06/28 03:29:59;;;;;;;9.83;8.88;;;;;;;27.29;57.96;100646.37;1653518;85;21094;-75
2022/06/28 03:32:27;;;;;;;11.55;10.32;;;;;;;27.53;57.89;100644.16;1650063;85;21074;-75
2022/06/28 03:34:54;;;;;;;22.65;20.82;;;;;;;27.72;56.87;100644.97;1652733;84;21059;-76
2022/06/28 03:37:21;;;;;;;20.00;18.23;;;;;;;27.18;55.86;100519.81;1651240;85;21091;-75
2022/06/28 03:39:48;;;;;;;20.82;19.23;;;;;;;28.35;54.74;100647.05;1650778;85;21528;-75
2022/06/28 03:42:16;;;;;;;15.50;14.20;;;;;;;28.65;53.74;100646.26;1649640;85;21588;-76
2022/06/28 03:44:44;;;;;;;24.55;22.55;;;;;;;28.86;53.09;100646.15;1648615;84;21682;-75
2022/06/28 03:47:10;;;;;;;23.80;21.80;;;;;;;29.14;52.12;100647.56;1650914;85;21082;-75
2022/06/28 03:49:54;;;;;;;11.45;10.35;;;;;;;29.31;51.61;100640.87;1649444;85;21067;-76
2022/06/28 03:52:28;;;;;;;14.83;13.43;;;;;;;29.51;50.77;100645.66;1631845;85;21058;-75
2022/06/28 03:56:38;;;;;;;10.48;9.63;;;;;;;29.47;50.91;100638.59;1755155;79;22825;-75
2022/06/28 03:59:04;;;;;;;9.78;9.03;;;;;;;29.37;51.38;100642.15;1693774;83;21016;-74
2022/06/28 04:01:30;;;;;;;8.80;8.28;;;;;;;29.48;51.31;100642.18;1697994;83;21009;-74
2022/06/28 04:03:57;;;;;;;10.88;9.70;;;;;;;29.61;51.34;100641.87;1700466;83;21255;-75
2022/06/28 04:06:23;;;;;;;8.20;7.60;;;;;;;29.73;50.66;100650.97;1702028;83;20977;-74
2022/06/28 04:08:49;;;;;;;9.00;8.30;;;;;;;29.73;50.67;100650.97;1700208;83;21487;-75
2022/06/28 04:11:18;;;;;;;8.43;7.80;;;;;;;29.71;50.40;100645.78;1701188;82;21017;-74
2022/06/28 04:13:52;;;;;;;11.53;10.03;;;;;;;29.69;50.46;100648.83;1699492;83;21616;-74
2022/06/28 04:16:21;;;;;;;13.30;12.00;;;;;;;29.76;50.33;100642.95;1692892;83;21036;-75
2022/06/28 04:18:49;;;;;;;15.15;13.98;;;;;;;29.94;50.29;100636.21;1703534;83;21575;-76
2022/06/28 04:21:19;;;;;;;22.10;20.20;;;;;;;30.20;49.38;100630.33;1700736;83;21061;-73
2022/06/28 04:23:47;;;;;;;17.60;16.40;;;;;;;30.54;48.78;100637.19;1701409;82;21029;-77
2022/06/28 04:26:14;;;;;;;17.70;16.10;;;;;;;30.82;48.29;100637.00;1712307;83;21072;-78
2022/06/28 04:28:42;;;;;;;15.05;13.75;;;;;;;31.03;47.90;100631.75;1702783;83;21036;-72
2022/06/28 04:31:11;;;;;;;15.63;14.43;;;;;;;31.28;47.38;100634.31;1701954;83;21303;-75
2022/06/28 04:33:38;;;;;;;13.22;11.97;;;;;;;31.52;46.38;100632.52;1691945;83;21013;-73
2022/06/28 04:36:05;;;;;;;18.73;17.27;;;;;;;31.72;45.49;100629.71;1684930;84;21021;-78
2022/06/28 04:38:32;;;;;;;11.25;10.35;;;;;;;31.90;44.76;100626.36;1663708;84;21093;-78
2022/06/28 04:41:03;;;;;;;14.80;13.43;;;;;;;32.04;44.11;100633.67;1678204;84;21061;-77
2022/06/28 04:43:31;;;;;;;13.35;12.10;;;;;;;32.04;44.23;100630.34;1672484;84;21020;-70
2022/06/28 04:45:59;;;;;;;8.20;7.70;;;;;;;32.05;43.57;100635.31;1673332;84;21104;-74
2022/06/28 04:48:27;;;;;;;6.83;6.12;;;;;;;32.09;44.34;100637.65;1634489;86;21033;-73
2022/06/28 04:50:53;;;;;;;8.55;7.95;;;;;;;32.17;43.22;100635.44;1619907;87;21823;-76
2022/06/28 04:53:20;;;;;;;6.90;6.50;;;;;;;31.92;43.73;100632.36;1643172;86;21512;-69
2022/06/28 04:55:48;;;;;;;6.33;5.85;;;;;;;31.68;44.35;100636.17;1643310;86;21720;-69
2022/06/28 04:58:16;;;;;;;4.95;4.53;;;;;;;31.59;44.09;100636.99;1685587;83;21029;-67
2022/06/28 05:00:42;;;;;;;6.12;5.53;;;;;;;31.36;43.43;100634.09;1685059;83;20981;-66
2022/06/28 05:03:10;;;;;;;5.10;4.42;;;;;;;31.22;44.33;100632.28;1689667;83;21049;-66
2022/06/28 05:05:39;;;;;;;5.65;5.25;;;;;;;31.18;44.25;100630.50;1676923;83;21345;-66
2022/06/28 05:08:05;;;;;;;14.25;13.25;;;;;;;31.17;43.10;100633.80;1704606;82;21082;-66
2022/06/28 05:10:33;;;;;;;5.40;4.90;;;;;;;31.33;42.52;100631.99;1700446;83;21089;-68
2022/06/28 05:13:01;;;;;;;5.45;4.03;;;;;;;31.44;41.89;100634.69;1685971;82;21526;-69
2022/06/28 05:15:29;;;;;;;5.35;4.92;;;;;;;31.46;41.21;100628.28;1716829;82;21593;-68
2022/06/28 05:18:05;;;;;;;5.12;4.53;;;;;;;31.51;41.42;100626.76;1714432;82;21056;-67
2022/06/28 05:20:34;;;;;;;4.15;3.85;;;;;;;31.72;42.08;100627.50;1712604;82;21183;-68
2022/06/28 05:23:02;;;;;;;4.85;4.28;;;;;;;31.88;40.69;100627.84;1698422;82;21049;-68
2022/06/28 05:25:46;;;;;;;4.42;4.00;;;;;;;31.97;39.91;100623.93;1689703;84;21040;-71
2022/06/28 05:28:13;;;;;;;6.58;4.60;;;;;;;32.14;40.02;100617.61;1678788;84;21112;-67
2022/06/28 05:30:40;;;;;;;3.60;3.30;;;;;;;32.31;39.92;100613.20;1684505;84;21105;-69
2022/06/28 05:33:07;;;;;;;6.33;2.98;;;;;;;32.46;38.06;100609.91;1682941;84;21116;-67
2022/06/28 05:35:33;;;;;;;3.92;3.72;;;;;;;32.25;38.15;100611.73;1696820;83;21076;-69
2022/06/28 05:38:00;;;;;;;3.83;3.72;;;;;;;32.06;38.76;100612.10;1690552;83;21512;-68
2022/06/28 05:40:26;;;;;;;4.40;3.80;;;;;;;32.12;38.69;100606.68;1687816;83;21138;-70
2022/06/28 05:42:52;;;;;;;4.03;3.67;;;;;;;32.10;38.82;100604.24;1692663;83;21112;-69
2022/06/28 05:45:19;;;;;;;4.40;4.20;;;;;;;32.09;38.83;100605.94;1688924;83;22180;-68
2022/06/28 05:47:45;;;;;;;3.10;2.90;;;;;;;32.20;38.65;100606.64;1684578;84;20989;-69
2022/06/28 05:50:12;;;;;;;2.70;2.65;;;;;;;32.34;38.54;100607.00;1692178;83;21014;-67
2022/06/28 05:52:38;;;;;;;4.97;3.10;;;;;;;32.34;37.99;100609.22;1693100;83;21153;-68
2022/06/28 05:55:07;;;;;;;2.87;2.77;;;;;;;32.26;38.39;100603.14;1693035;83;21167;-68
2022/06/28 05:57:34;;;;;;;4.05;3.60;;;;;;;32.49;37.96;100606.47;1722952;82;21069;-67
2022/06/28 06:00:01;;;;;;;2.80;2.60;;;;;;;32.64;37.53;100607.10;1717556;82;21119;-67
2022/06/28 06:02:29;;;;;;;3.85;3.55;;;;;;;32.57;37.81;100602.11;1717658;82;21529;-66
2022/06/28 06:04:55;;;;;;;4.75;3.40;;;;;;;32.56;37.73;100603.20;1721370;82;21093;-68
2022/06/28 06:07:22;;;;;;;6.25;3.90;;;;;;;32.50;37.75;100607.30;1723931;82;21033;-68
2022/06/28 06:09:48;;;;;;;4.28;3.77;;;;;;;32.29;38.20;100568.59;1721671;82;21120;-70
2022/06/28 06:12:15;;;;;;;3.67;3.30;;;;;;;32.61;37.71;100605.83;1690401;82;21052;-72
2022/06/28 06:14:42;;;;;;;5.05;3.27;;;;;;;32.77;37.53;100606.06;1662042;84;21128;-72
2022/06/28 06:17:08;;;;;;;3.47;3.25;;;;;;;32.94;37.54;100609.30;1664713;84;21025;-72
2022/06/28 06:19:36;;;;;;;3.10;2.90;;;;;;;33.03;36.98;100607.89;1637203;86;21102;-72
2022/06/28 06:22:02;;;;;;;4.67;2.20;;;;;;;32.92;37.12;100611.02;1662230;84;21073;-71
2022/06/28 06:24:28;;;;;;;2.75;2.55;;;;;;;32.92;37.14;100609.63;1629363;86;21125;-72
2022/06/28 06:27:08;;;;;;;2.95;2.80;;;;;;;33.23;36.06;100603.00;1674092;84;21044;-71
2022/06/28 06:29:35;;;;;;;3.33;2.65;;;;;;;33.62;35.83;100593.98;1645890;86;21059;-72
2022/06/28 06:32:02;;;;;;;3.45;3.15;;;;;;;33.93;34.90;100588.05;1611290;88;21602;-70
2022/06/28 06:34:36;;;;;;;4.17;3.87;;;;;;;34.19;34.34;100578.70;1685071;83;21569;-70
2022/06/28 06:37:04;;;;;;;5.40;2.62;;;;;;;34.39;34.38;100581.72;1693298;83;21664;-71
2022/06/28 06:39:31;;;;;;;2.95;2.70;;;;;;;34.63;33.71;100576.79;1677121;84;21176;-70
2022/06/28 06:41:58;;;;;;;4.20;2.37;;;;;;;34.67;34.07;100582.69;1662239;85;21030;-69
2022/06/28 06:44:25;;;;;;;3.33;3.02;;;;;;;34.65;33.53;100579.43;1662004;84;21109;-71
2022/06/28 06:46:51;;;;;;;3.37;2.67;;;;;;;34.55;34.20;100578.52;1684798;84;21104;-69
2022/06/28 06:49:18;;;;;;;4.42;2.30;;;;;;;34.30;34.51;100579.87;1681850;84;21030;-71
2022/06/28 06:51:45;;;;;;;1.82;1.72;;;;;;;34.13;34.07;100580.02;1686181;84;21168;-70
2022/06/28 06:54:12;;;;;;;2.20;2.08;;;;;;;33.82;34.18;100578.56;1675862;84;21521;-72
2022/06/28 06:56:42;;;;;;;3.60;1.60;;;;;;;33.34;35.24;100577.15;1655195;84;21081;-70
2022/06/28 06:59:11;;;;;;;3.33;3.02;;;;;;;32.92;35.77;100588.12;1668363;84;21494;-71
2022/06/28 07:01:37;;;;;;;4.55;1.92;;;;;;;32.62;35.94;100584.55;1626982;86;21074;-72
2022/06/28 07:04:04;;;;;;;1.80;1.70;;;;;;;32.53;36.06;100584.55;1622584;87;21089;-72
2022/06/28 07:06:32;;;;;;;2.02;1.90;;;;;;;32.45;35.84;100580.69;1613332;87;21075;-70
2022/06/28 07:08:58;;;;;;;2.83;2.72;;;;;;;32.33;35.97;100586.90;1617787;87;21102;-70
2022/06/28 07:11:25;;;;;;;6.67;3.30;;;;;;;32.35;36.00;100584.62;1627227;84;21147;-70
2022/06/28 07:13:51;;;;;;;3.00;1.77;;;;;;;32.49;36.30;100576.70;1678929;83;21610;-73
2022/06/28 07:16:20;;;;;;;2.12;1.92;;;;;;;32.61;35.80;100574.64;1702211;83;21095;-70
2022/06/28 07:18:47;;;;;;;2.25;2.15;;;;;;;32.51;35.94;100577.17;1701016;83;21622;-72
2022/06/28 07:21:13;;;;;;;1.90;1.57;;;;;;;32.48;36.00;100580.61;1675060;83;21058;-69
2022/06/28 07:23:41;;;;;;;2.30;1.52;;;;;;;32.49;34.73;100578.08;1698933;83;21067;-73
2022/06/28 07:26:08;;;;;;;1.77;1.00;;;;;;;32.65;33.75;100583.32;1701134;83;21037;-69
2022/06/28 07:28:34;;;;;;;1.72;1.67;;;;;;;32.58;32.99;100581.06;1702926;83;21187;-72
2022/06/28 07:31:00;;;;;;;1.85;1.00;;;;;;;32.44;33.00;100582.39;1701505;83;21001;-71
2022/06/28 07:33:26;;;;;;;0.88;0.88;;;;;;;32.38;32.58;100586.73;1702576;83;21010;-71
2022/06/28 07:35:53;;;;;;;1.35;1.25;;;;;;;32.49;32.79;100594.62;1690963;83;21087;-70
2022/06/28 07:38:19;;;;;;;0.60;0.60;;;;;;;32.51;32.74;100588.20;1662496;84;21720;-73
2022/06/28 07:41:04;;;;;;;1.85;1.12;;;;;;;32.35;32.46;100591.52;1637166;86;21114;-70
2022/06/28 07:43:53;;;;;;;2.25;1.00;;;;;;;32.05;33.13;100588.44;1653118;86;21043;-70
2022/06/28 07:46:23;;;;;;;1.10;0.85;;;;;;;31.86;33.55;100585.44;1650162;85;21090;-70
2022/06/28 07:48:50;;;;;;;1.15;1.05;;;;;;;31.82;33.87;100585.85;1645755;85;20999;-70
2022/06/28 07:54:04;;;;;;;1.90;1.80;;;;;;;31.79;34.50;100583.73;1681382;84;21562;-73
2022/06/28 07:56:35;;;;;;;1.40;1.22;;;;;;;31.67;35.86;100590.48;1680284;83;21281;-71
2022/06/28 07:59:02;;;;;;;1.87;1.77;;;;;;;31.53;36.36;100587.33;1693643;83;21084;-71
2022/06/28 08:01:32;;;;;;;2.25;2.15;;;;;;;31.49;36.42;100591.84;1668349;85;21069;-71
2022/06/28 08:03:58;;;;;;;2.62;1.92;;;;;;;31.42;36.62;100595.64;1669163;85;21671;-71
2022/06/28 08:06:25;;;;;;;2.00;1.98;;;;;;;31.42;37.07;100594.27;1644381;86;21604;-71
2022/06/28 08:08:56;;;;;;;2.60;2.27;;;;;;;31.54;36.77;100597.20;1636709;85;21039;-72
2022/06/28 08:11:22;;;;;;;4.72;2.00;;;;;;;31.74;36.79;100592.99;1653157;84;21098;-72
2022/06/28 08:13:50;;;;;;;2.17;2.08;;;;;;;31.96;36.49;100614.02;1706992;84;21106;-71
2022/06/28 08:16:17;;;;;;;1.82;1.72;;;;;;;32.08;36.21;100596.04;1690404;82;21086;-71
2022/06/28 08:18:44;;;;;;;2.30;1.95;;;;;;;32.15;36.03;100594.39;1690219;83;21572;-75
2022/06/28 08:21:10;;;;;;;1.80;1.70;;;;;;;32.29;35.83;100583.19;1680587;83;21196;-72
2022/06/28 08:23:37;;;;;;;2.05;1.70;;;;;;;32.45;35.31;100596.44;1688712;83;21164;-72
2022/06/28 08:26:03;;;;;;;1.55;1.55;;;;;;;32.35;35.07;100590.71;1686495;83;21054;-72
2022/06/28 08:28:29;;;;;;;1.60;1.50;;;;;;;32.14;35.51;100586.48;1677946;83;21006;-71
2022/06/28 08:30:59;;;;;;;1.20;1.15;;;;;;;31.91;35.55;100591.33;1672606;83;21546;-72
2022/06/28 08:33:26;;;;;;;1.82;1.72;;;;;;;31.66;36.09;100584.72;1705546;84;21557;-70
2022/06/28 08:35:52;;;;;;;1.92;1.70;;;;;;;31.47;36.30;100581.72;1659294;84;21136;-69
2022/06/28 08:38:19;;;;;;;1.70;1.60;;;;;;;31.41;36.73;100574.15;1708185;82;21078;-71
2022/06/28 08:40:46;;;;;;;1.85;1.75;;;;;;;31.48;36.64;100577.04;1669639;85;21464;-71
2022/06/28 08:43:15;;;;;;;1.72;1.62;;;;;;;31.54;36.54;100570.23;1709020;84;21032;-71
2022/06/28 08:45:43;;;;;;;2.37;2.17;;;;;;;31.55;36.18;100578.17;1662256;83;21114;-74
2022/06/28 08:48:24;;;;;;;3.02;1.67;;;;;;;31.42;36.41;100576.36;1634988;86;21613;-71
2022/06/28 08:50:53;;;;;;;1.90;1.52;;;;;;;31.34;36.38;100568.88;1674962;85;21472;-69
2022/06/28 08:53:22;;;;;;;5.08;4.78;;;;;;;31.29;36.44;100570.41;1684033;84;21112;-70
2022/06/28 08:55:51;;;;;;;4.17;2.30;;;;;;;31.29;36.29;100564.90;1698787;83;21091;-72
2022/06/28 08:58:18;;;;;;;2.10;2.00;;;;;;;31.27;36.24;100570.76;1695257;84;21103;-72
2022/06/28 09:00:48;;;;;;;2.55;2.30;;;;;;;31.26;37.16;100566.94;1700505;84;21069;-70
2022/06/28 09:03:18;;;;;;;2.45;2.10;;;;;;;31.29;36.75;100558.84;1698893;83;21077;-69
2022/06/28 09:05:45;;;;;;;2.95;1.98;;;;;;;31.25;36.81;100566.14;1697438;83;21055;-72
2022/06/28 09:08:15;;;;;;;2.10;2.00;;;;;;;31.27;36.56;100565.80;1689134;84;21550;-72
2022/06/28 09:10:43;;;;;;;3.45;2.22;;;;;;;31.35;36.23;100553.99;1703350;83;21154;-71
2022/06/28 09:13:13;;;;;;;4.35;1.95;;;;;;;31.42;35.99;100556.50;1694014;83;21031;-70
2022/06/28 09:15:58;;;;;;;4.50;2.00;;;;;;;31.50;36.02;100560.42;1702564;83;21038;-72
2022/06/28 09:18:38;;;;;;;2.20;1.85;;;;;;;31.60;35.81;100557.33;1689694;83;21052;-70
2022/06/28 09:21:08;;;;;;;6.22;1.70;;;;;;;31.68;35.48;100559.83;1696629;83;21054;-72
2022/06/28 09:23:38;;;;;;;2.10;1.92;;;;;;;31.71;35.50;100559.19;1695579;83;21067;-71
2022/06/28 09:26:16;;;;;;;2.47;2.27;;;;;;;31.73;35.40;100555.53;1703328;83;21025;-72
2022/06/28 09:28:49;;;;;;;2.83;2.10;;;;;;;31.71;36.08;100557.01;1701484;83;21662;-72
2022/06/28 09:31:22;;;;;;;1.45;1.35;;;;;;;31.72;35.58;100553.09;1700841;83;21193;-73
2022/06/28 09:34:04;;;;;;;2.17;2.07;;;;;;;31.68;35.01;100559.02;1707291;82;21129;-69
2022/06/28 09:36:40;;;;;;;2.25;2.00;;;;;;;31.58;34.76;100564.30;1709888;83;21564;-72
2022/06/28 09:39:16;;;;;;;2.42;2.33;;;;;;;31.51;34.85;100561.22;1700355;83;21065;-72
2022/06/28 09:41:46;;;;;;;3.70;2.20;;;;;;;31.47;35.21;100551.99;1693628;83;21097;-71
2022/06/28 09:44:12;;;;;;;2.25;2.15;;;;;;;31.41;35.62;100552.69;1699829;83;21019;-71
2022/06/28 09:46:39;;;;;;;2.85;2.65;;;;;;;31.33;35.83;100548.80;1680239;83;21044;-72
2022/06/28 09:49:08;;;;;;;1.85;1.85;;;;;;;31.25;35.71;100537.23;1648689;85;21082;-69
2022/06/28 09:51:37;;;;;;;2.33;2.33;;;;;;;31.27;35.78;100537.72;1626813;86;21050;-73
2022/06/28 09:54:07;;;;;;;2.12;2.00;;;;;;;31.39;35.90;100535.69;1660888;85;21101;-71
2022/06/28 09:56:41;;;;;;;4.67;2.67;;;;;;;31.45;35.71;100533.00;1642047;85;21105;-71
2022/06/28 09:59:11;;;;;;;3.20;2.90;;;;;;;31.47;35.63;100537.64;1638343;87;21101;-71
2022/06/28 10:01:38;;;;;;;4.58;2.40;;;;;;;31.44;35.77;100520.38;1620463;85;21070;-72
2022/06/28 10:04:05;;;;;;;2.90;2.55;;;;;;;31.43;36.09;100527.02;1600371;87;21140;-72
2022/06/28 10:06:33;;;;;;;3.20;3.00;;;;;;;31.38;36.16;100528.54;1586548;89;21121;-70
2022/06/28 10:09:00;;;;;;;2.25;2.05;;;;;;;31.33;36.10;100521.27;1582706;89;21240;-72
2022/06/28 10:15:00;;;;;;;3.08;2.87;;;;;;;31.38;36.13;100523.03;1586785;88;21061;-72
2022/06/28 10:17:00;;;;;;;2.45;2.25;;;;;;;31.56;35.03;100498.51;1602725;88;21204;-71
2022/06/28 10:19:27;;;;;;;4.37;2.50;;;;;;;31.68;34.86;100505.30;1638424;87;21025;-71
2022/06/28 10:21:58;;;;;;;6.47;2.35;;;;;;;31.75;34.72;100494.02;1619862;87;21187;-71
2022/06/28 10:24:49;;;;;;;3.15;1.98;;;;;;;31.85;34.69;100503.08;1637488;86;21121;-73
2022/06/28 10:27:17;;;;;;;2.45;2.25;;;;;;;31.92;34.22;100505.56;1638007;86;21138;-71
2022/06/28 10:30:16;;;;;;;9.20;2.00;;;;;;;31.95;34.42;100504.92;1640385;86;21034;-70
2022/06/28 10:33:03;;;;;;;2.80;2.60;;;;;;;31.96;34.31;100506.52;1657496;85;21014;-71
2022/06/28 10:35:47;;;;;;;2.47;2.37;;;;;;;31.93;34.42;100495.34;1650358;85;21073;-70
2022/06/28 10:38:15;;;;;;;3.58;1.87;;;;;;;31.90;34.59;100494.06;1658138;85;21100;-71
2022/06/28 10:40:49;;;;;;;1.90;1.80;;;;;;;31.89;34.13;100494.38;1631033;86;21074;-73
2022/06/28 10:43:34;;;;;;;3.52;2.17;;;;;;;31.91;34.30;100497.08;1635270;85;21053;-72
2022/06/28 10:46:07;;;;;;;2.00;1.87;;;;;;;31.95;34.39;100505.50;1665609;84;21158;-73
2022/06/28 10:48:51;;;;;;;2.00;1.90;;;;;;;31.97;33.88;100512.29;1673244;84;21148;-70
2022/06/28 10:51:19;;;;;;;2.47;2.42;;;;;;;31.96;33.86;100500.20;1660068;86;21133;-71
2022/06/28 10:54:01;;;;;;;1.57;1.47;;;;;;;31.98;33.90;100501.48;1708576;82;21586;-72
2022/06/28 10:56:46;;;;;;;3.25;1.90;;;;;;;32.05;34.01;100495.51;1688737;82;21014;-72
2022/06/28 10:59:17;;;;;;;2.20;1.82;;;;;;;32.14;34.40;100488.59;1647637;86;21525;-71
2022/06/28 11:01:52;;;;;;;2.35;1.95;;;;;;;32.26;34.87;100486.52;1641957;85;21082;-72
2022/06/28 11:04:22;;;;;;;;;;;;;;;32.36;34.25;100484.20;1689481;84;21565;-71
2022/06/28 11:06:53;;;;;;;2.22;2.12;;;;;;;32.38;34.12;100490.19;1653253;86;20494;-71
2022/06/28 11:10:03;;;;;;;4.53;1.77;;;;;;;32.28;34.45;100476.75;1662969;86;21050;-73
2022/06/28 11:12:38;;;;;;;2.20;2.10;;;;;;;32.28;34.33;100483.65;1652264;86;21025;-72
2022/06/28 11:15:11;;;;;;;2.15;1.85;;;;;;;32.30;34.44;100480.56;1656433;84;22421;-71
2022/06/28 11:17:43;;;;;;;2.92;1.60;;;;;;;32.32;34.45;100483.22;1659827;85;21083;-72
2022/06/28 11:20:18;;;;;;;2.25;2.12;;;;;;;32.26;34.40;100481.80;1661141;85;21019;-71
2022/06/28 11:22:47;;;;;;;2.77;2.67;;;;;;;32.13;34.70;100471.22;1653800;84;21133;-69
2022/06/28 11:25:24;;;;;;;3.02;2.15;;;;;;;32.05;35.14;100466.56;1624699;86;21150;-70
2022/06/28 11:27:56;;;;;;;2.80;2.02;;;;;;;32.04;35.34;100466.31;1669525;84;21027;-70
2022/06/28 11:30:36;;;;;;;1.95;1.85;;;;;;;32.12;35.21;100467.44;1632143;86;21091;-72
2022/06/28 11:33:37;;;;;;;1.77;1.67;;;;;;;32.23;34.25;100471.99;1627837;86;21213;-72
2022/06/28 11:36:04;;;;;;;3.40;2.15;;;;;;;32.37;34.08;100467.87;1681877;84;21086;-72
2022/06/28 11:38:30;;;;;;;2.50;2.12;;;;;;;32.44;33.85;100470.66;1708871;83;21519;-71
2022/06/28 11:40:57;;;;;;;1.87;1.70;;;;;;;32.38;34.00;100466.74;1698328;84;21055;-71
2022/06/28 11:43:27;;;;;;;3.30;1.62;;;;;;;32.34;33.95;100469.10;1700482;83;21101;-72
2022/06/28 11:45:58;;;;;;;2.15;2.05;;;;;;;32.25;34.11;100462.27;1688897;83;21128;-70